Hayward, WI

9:48 AM CDT on August 01, 2014 (GMT -0500)
Cumberland Municipal (KUBE) Elev 1240 ft | 45.51 °N, 91.98 °W | Change Station

Current weather conditions updated 13 minutes ago

Clear
Clear
68 °F
Feels Like 68 °F
N
0
Wind Variable Wind from North

Today is forecast to be nearly the same temperature as yesterday. Scattered thunderstorms.

Today
High -- | Low -- °F
--% Chance of Precip.
Yesterday
High -- | Low -- °F
Precip. -- in
5:48 AM 8:35 PM
Waxing Crescent, 27% visible
Pressure 30.07 in
Visibility 10.0 miles
Clouds Clear
Dew Point 63 °F
Humidity 83%
Rainfall 0.00 in
Snow Depth Not available.
UV 5 out of 12
Pollen 5.90 out of 12
Air Quality Not available.
Flu Activity Not available.
METAR KUBE 011435Z AUTO 00000KT 10SM CLR 20/17 A3007 RMK AO2

More Conditions Fewer Conditions

Pressure 30.07 in
Visibility 10.0 miles
Clouds Clear
Dew Point 63 °F
Humidity 83%
Rainfall 0.00 in
Snow Depth Not available.
UV 5 out of 12
Pollen 5.90 out of 12
Air Quality Not available.
Flu Activity Not available.
METAR KUBE 011435Z AUTO 00000KT 10SM CLR 20/17 A3007 RMK AO2

More Conditions Fewer Conditions

10-Day Weather Forecast

Almanac

Astronomy

Aug. 01, 2014 Rise Set
Actual Time 5:48 AM CDT 8:35 PM CDT
Civil Twilight 5:13 AM CDT 9:09 PM CDT
Nautical Twilight 4:29 AM CDT 9:53 PM CDT
Astronomical Twilight 3:37 AM CDT 10:44 PM CDT
Moon 11:32 AM CDT 10:58 PM CDT
Length of Visible Light 15h 56m
Length of Day
14h 47m
Tomorrow will be 2m 32s shorter.
Waxing Crescent, 27% of the Moon is Illuminated
Today
Waxing Crescent
Aug 3
First Quarter
Aug 10
Full
Aug 17
Last Quarter
Aug 25
New

Today's Extremes

State Highs State Lows

Community

WunderPhotos

Upload Photos

1,739,599 photos uploaded!

Nearby

Snow Depth

Station Depth Elevation
No new snow has been reported.

Earthquake Activity

City Distance Mag. Time & Date
No recent earthquake activity has been reported nearby.
Minimum magnitude displayed is 2.5.

Coastal Water Temperatures

Place Temperature
No Stations Reporting

Nearby Weather Stations

Station Location Temp. Dew Point Humidity Wind Precip. Elev Updated Type
RAWS HAYWARD WI, North Woods Beach, WI 67 °F 63 °F 86% North  at  0 mph 0.00 in / hr 1173 ft 9:03 AM CDT MADIS
Three miles west of Seeley, Seeley, WI 68.9 °F 66 °F 90% North  at  0.0 mph 0.00 in / hr 1338 ft 9:40 AM CDT Normal
Cable, Cable, WI 68.6 °F 57 °F 67% North  at  1.0 mph 0.00 in / hr 1345 ft 9:39 AM CDT Normal
Dam Road, Winter, WI 64.0 °F 64 °F 99% WSW  at  0.0 mph 0.00 in / hr 1312 ft 9:48 AM CDT Rapid Fire
Lake Five, Clamlake, WI 66.1 °F 61 °F 84% NNE  at  0.0 mph 0.00 in / hr 1500 ft 9:48 AM CDT Rapid Fire
Clam Lake, WI 62.6 °F 58 °F 85% North  at  2.3 mph 0.00 in / hr 1500 ft 9:47 AM CDT Rapid Fire
RAWS CLAM LAKE WI, Clam Lake, WI 68 °F 65 °F 89% North  at  0 mph 0.00 in / hr 1500 ft 9:02 AM CDT MADIS

Show More Stations Show Fewer Stations